Time;durP1;ratioP1;P1;durP2;ratioP2;P2;SDS_P1;SDS_P2;PMS_P1;PMS_P2;Temp;Humidity;BMP_temperature;BMP_pressure;BME280_temperature;BME280_humidity;BME280_pressure;Samples;Min_cycle;Max_cycle;Signal;HPM_P1;HPM_P2
2023/03/05 00:01:33;;;;;;;12.68;4.13;;;3.30;99.90;;;;;;5093923;28;20434;-90
2023/03/05 00:04:00;;;;;;;10.77;2.60;;;3.30;99.90;;;;;;5092420;28;20420;-91
2023/03/05 00:06:28;;;;;;;11.25;2.83;;;3.40;99.90;;;;;;5094114;28;20402;-90
2023/03/05 00:08:55;;;;;;;11.13;2.70;;;3.40;99.90;;;;;;5109793;28;20402;-90
2023/03/05 00:11:21;;;;;;;10.60;2.30;;;3.40;99.90;;;;;;5093851;28;20395;-91
2023/03/05 00:13:50;;;;;;;8.75;1.33;;;3.40;99.90;;;;;;5093060;28;20443;-90
2023/03/05 00:16:16;;;;;;;9.07;1.20;;;3.40;99.90;;;;;;5092906;28;20394;-90
2023/03/05 00:18:43;;;;;;;9.35;1.00;;;3.40;99.90;;;;;;5093505;28;20535;-90
2023/03/05 00:21:24;;;;;;;6.20;0.80;;;3.40;99.90;;;;;;5109082;28;20457;-90
2023/03/05 00:23:52;;;;;;;9.68;1.50;;;3.40;99.90;;;;;;5095522;27;20954;-91
2023/03/05 00:26:22;;;;;;;9.00;1.38;;;3.40;99.90;;;;;;5097038;27;20402;-90
2023/03/05 00:28:50;;;;;;;13.00;1.60;;;3.40;99.90;;;;;;5097507;27;20756;-90
2023/03/05 00:31:31;;;;;;;10.18;1.95;;;3.40;99.90;;;;;;5097548;27;21019;-90
2023/03/05 00:34:02;;;;;;;9.98;1.40;;;3.40;99.90;;;;;;5090133;27;20401;-90
2023/03/05 00:36:28;;;;;;;10.83;1.17;;;3.30;99.90;;;;;;5097803;27;20909;-89
2023/03/05 00:38:54;;;;;;;7.57;1.15;;;3.30;99.90;;;;;;5113424;27;20490;-89
2023/03/05 00:41:20;;;;;;;12.30;1.30;;;3.30;99.90;;;;;;5114343;27;20483;-90
2023/03/05 00:43:46;;;;;;;11.60;1.30;;;3.20;99.90;;;;;;5096659;27;20403;-90
2023/03/05 00:46:11;;;;;;;7.72;1.00;;;3.20;99.90;;;;;;5096880;27;20395;-89
2023/03/05 00:48:37;;;;;;;9.30;1.60;;;3.10;99.90;;;;;;5114301;27;20992;-91
2023/03/05 00:51:03;;;;;;;10.27;1.53;;;3.10;99.90;;;;;;5096018;27;20884;-91
2023/03/05 00:53:29;;;;;;;12.60;2.70;;;3.10;99.90;;;;;;5097246;27;20455;-88
2023/03/05 00:55:55;;;;;;;10.93;3.58;;;3.10;99.90;;;;;;5096111;27;20403;-90
2023/03/05 00:58:20;;;;;;;11.63;1.10;;;3.10;99.90;;;;;;5114075;27;20754;-90
2023/03/05 01:00:49;;;;;;;9.97;1.00;;;3.10;99.90;;;;;;5113272;27;20422;-90
2023/03/05 01:03:18;;;;;;;10.23;0.90;;;3.10;99.90;;;;;;5096433;27;20426;-90
2023/03/05 01:05:44;;;;;;;9.57;1.00;;;3.20;99.90;;;;;;5096771;27;20409;-90
2023/03/05 01:08:10;;;;;;;9.77;1.10;;;3.30;99.90;;;;;;5095923;27;20492;-90
2023/03/05 01:10:36;;;;;;;11.63;1.40;;;3.30;99.90;;;;;;5096744;27;20442;-90
2023/03/05 01:13:01;;;;;;;9.80;1.20;;;3.30;99.90;;;;;;5095494;27;20487;-90
2023/03/05 01:15:27;;;;;;;8.23;1.20;;;3.20;99.90;;;;;;5097212;27;21018;-89
2023/03/05 01:17:52;;;;;;;10.68;1.00;;;3.20;99.90;;;;;;5094977;27;21146;-89
2023/03/05 01:20:20;;;;;;;9.23;1.38;;;3.10;99.90;;;;;;5096633;27;20897;-90
2023/03/05 01:22:46;;;;;;;12.70;3.00;;;3.00;99.90;;;;;;5096138;27;20457;-90
2023/03/05 01:25:13;;;;;;;11.43;3.27;;;3.00;99.90;;;;;;5113141;27;20407;-90
2023/03/05 01:27:39;;;;;;;11.37;3.77;;;3.00;99.90;;;;;;5096263;27;20413;-91
2023/03/05 01:30:06;;;;;;;11.83;3.87;;;3.00;99.90;;;;;;5112142;27;20407;-89
2023/03/05 01:32:33;;;;;;;12.05;3.85;;;2.90;99.90;;;;;;5096647;27;20390;-89
2023/03/05 01:35:00;;;;;;;10.50;3.40;;;2.90;99.90;;;;;;5095320;27;20403;-90
2023/03/05 01:37:26;;;;;;;12.95;3.35;;;2.80;99.90;;;;;;5096325;27;20438;-90
2023/03/05 01:39:51;;;;;;;11.70;2.95;;;2.80;99.90;;;;;;5095412;27;20439;-88
2023/03/05 01:42:19;;;;;;;14.75;3.15;;;2.70;99.90;;;;;;5096003;27;20427;-90
2023/03/05 01:45:07;;;;;;;10.00;2.83;;;2.70;99.90;;;;;;5095517;27;20409;-90
2023/03/05 01:47:32;;;;;;;10.45;2.47;;;2.60;99.90;;;;;;5094943;27;20430;-90
2023/03/05 01:49:59;;;;;;;11.02;2.65;;;2.50;99.90;;;;;;5113564;27;20433;-90
2023/03/05 01:52:26;;;;;;;11.48;2.20;;;2.50;99.90;;;;;;5094702;27;20402;-89
2023/03/05 01:54:54;;;;;;;10.45;2.15;;;2.50;99.90;;;;;;5095690;27;20394;-91
2023/03/05 01:57:37;;;;;;;10.07;1.98;;;2.50;99.90;;;;;;5095463;27;20410;-89
2023/03/05 02:00:17;;;;;;;10.43;1.80;;;2.50;99.90;;;;;;5094989;27;20738;-90
2023/03/05 02:02:46;;;;;;;9.85;1.60;;;2.50;99.90;;;;;;5095607;27;20458;-90
2023/03/05 02:05:28;;;;;;;9.77;2.30;;;2.50;99.90;;;;;;5094383;27;20433;-89
2023/03/05 02:07:56;;;;;;;12.77;2.28;;;2.50;99.90;;;;;;5112325;27;20426;-90
2023/03/05 02:10:25;;;;;;;12.02;1.90;;;2.50;99.90;;;;;;5094873;27;20397;-90
2023/03/05 02:12:55;;;;;;;9.98;1.35;;;2.60;99.90;;;;;;5111780;27;20449;-90
2023/03/05 02:15:21;;;;;;;8.10;1.40;;;2.60;99.90;;;;;;5095255;27;20410;-89
2023/03/05 02:17:47;;;;;;;9.60;1.45;;;2.60;99.90;;;;;;5094119;27;20399;-90
2023/03/05 02:20:17;;;;;;;8.60;1.10;;;2.90;99.90;;;;;;5095642;27;20391;-90
2023/03/05 02:22:42;;;;;;;9.13;1.33;;;2.70;99.90;;;;;;5094138;27;20433;-89
2023/03/05 02:25:28;;;;;;;11.10;1.70;;;2.70;99.90;;;;;;5095571;27;20909;-90
2023/03/05 02:28:03;;;;;;;9.05;1.17;;;2.70;99.90;;;;;;5094741;27;20491;-90
2023/03/05 02:30:30;;;;;;;9.90;1.50;;;2.70;99.90;;;;;;5094652;27;20402;-90
2023/03/05 02:32:56;;;;;;;10.85;1.98;;;2.80;99.90;;;;;;5095335;27;20435;-89
2023/03/05 02:35:22;;;;;;;16.33;3.75;;;2.70;99.90;;;;;;5094166;27;20782;-90
2023/03/05 02:37:48;;;;;;;12.82;2.10;;;2.90;99.90;;;;;;5095388;27;20478;-90
2023/03/05 02:40:15;;;;;;;9.15;1.50;;;2.90;99.90;;;;;;5111226;27;20566;-90
2023/03/05 02:42:41;;;;;;;7.27;0.80;;;2.80;99.90;;;;;;5094951;27;20471;-90
2023/03/05 02:45:08;;;;;;;5.90;0.60;;;2.90;99.90;;;;;;5094930;27;20406;-89
2023/03/05 02:47:34;;;;;;;7.90;0.80;;;3.00;99.90;;;;;;5111101;27;20407;-90
2023/03/05 02:50:00;;;;;;;8.75;0.95;;;3.10;99.90;;;;;;5111743;27;20455;-90
2023/03/05 02:52:26;;;;;;;8.02;0.98;;;3.10;99.90;;;;;;5094238;27;20882;-90
2023/03/05 02:54:52;;;;;;;9.63;1.90;;;3.10;99.90;;;;;;5095096;27;20399;-90
2023/03/05 02:57:18;;;;;;;8.43;0.60;;;3.10;99.90;;;;;;5093762;27;20387;-91
2023/03/05 02:59:45;;;;;;;7.85;0.60;;;3.30;99.90;;;;;;5094887;27;20402;-91
2023/03/05 03:02:11;;;;;;;5.28;0.65;;;3.10;99.90;;;;;;5093976;27;20430;-89
2023/03/05 03:04:36;;;;;;;6.35;0.75;;;3.10;99.90;;;;;;5094539;27;20406;-90
2023/03/05 03:07:02;;;;;;;7.88;1.00;;;3.10;99.90;;;;;;5094157;27;20414;-90
2023/03/05 03:09:28;;;;;;;8.97;1.53;;;3.10;99.90;;;;;;5093799;27;20435;-90
2023/03/05 03:11:54;;;;;;;8.97;1.23;;;3.10;99.90;;;;;;5111839;27;20440;-90
2023/03/05 03:14:20;;;;;;;9.73;2.30;;;3.00;99.90;;;;;;5092830;27;20395;-90
2023/03/05 03:16:45;;;;;;;8.13;2.75;;;2.90;99.90;;;;;;5094865;27;20485;-90
2023/03/05 03:19:11;;;;;;;8.70;1.30;;;2.90;99.90;;;;;;5093333;27;20835;-89
2023/03/05 03:21:37;;;;;;;6.13;1.20;;;2.90;99.90;;;;;;5094031;27;20427;-89
2023/03/05 03:24:02;;;;;;;6.20;1.35;;;2.90;99.90;;;;;;5093854;27;20398;-90
2023/03/05 03:26:29;;;;;;;6.75;1.00;;;2.80;99.90;;;;;;5093293;27;20516;-90
2023/03/05 03:28:55;;;;;;;5.13;1.10;;;2.90;99.90;;;;;;5094066;27;20980;-91
2023/03/05 03:31:21;;;;;;;7.75;0.80;;;2.90;99.90;;;;;;5093126;27;20536;-89
2023/03/05 03:33:46;;;;;;;8.77;0.75;;;2.90;99.90;;;;;;5110977;27;20390;-90
2023/03/05 03:36:13;;;;;;;5.70;0.80;;;2.90;99.90;;;;;;5092964;27;20411;-88
2023/03/05 03:38:38;;;;;;;7.88;0.60;;;3.00;99.90;;;;;;5094415;27;20398;-90
2023/03/05 03:41:06;;;;;;;7.07;0.57;;;3.10;99.90;;;;;;5109864;27;20905;-90
2023/03/05 03:43:33;;;;;;;6.63;0.60;;;3.10;99.90;;;;;;5093710;27;21057;-90
2023/03/05 03:45:59;;;;;;;5.65;0.50;;;3.40;99.90;;;;;;5093604;28;20908;-89
2023/03/05 03:48:24;;;;;;;5.40;0.50;;;3.10;99.90;;;;;;5093187;28;20489;-90
2023/03/05 03:50:50;;;;;;;5.37;0.43;;;3.10;99.90;;;;;;5110708;27;20441;-90
2023/03/05 03:53:16;;;;;;;4.43;0.27;;;3.10;99.90;;;;;;5092690;27;20440;-90
2023/03/05 03:55:43;;;;;;;4.97;0.40;;;3.10;99.90;;;;;;5094176;28;20457;-90
2023/03/05 03:58:09;;;;;;;9.10;0.70;;;3.10;99.90;;;;;;5092634;28;20476;-90
2023/03/05 04:00:35;;;;;;;7.97;0.50;;;3.10;99.90;;;;;;5093465;27;21024;-90
2023/03/05 04:03:00;;;;;;;6.53;0.50;;;3.20;99.90;;;;;;5092965;28;20414;-91
2023/03/05 04:05:26;;;;;;;6.17;0.50;;;3.20;99.90;;;;;;5093281;28;20494;-91
2023/03/05 04:07:52;;;;;;;6.93;0.50;;;3.10;99.90;;;;;;5093599;28;20483;-90
2023/03/05 04:10:18;;;;;;;7.00;0.50;;;3.00;99.90;;;;;;5092974;28;20406;-91
2023/03/05 04:12:45;;;;;;;7.10;0.60;;;3.10;99.90;;;;;;5093814;28;20414;-91
2023/03/05 04:15:11;;;;;;;5.05;0.50;;;2.90;99.90;;;;;;5092340;28;20406;-90
2023/03/05 04:17:36;;;;;;;8.52;0.68;;;2.80;99.90;;;;;;5093644;28;20402;-90
2023/03/05 04:20:04;;;;;;;5.67;0.30;;;2.80;99.90;;;;;;5092721;28;20761;-90
2023/03/05 04:22:30;;;;;;;6.60;0.60;;;2.70;99.90;;;;;;5092401;28;20422;-90
2023/03/05 04:24:56;;;;;;;6.83;0.73;;;2.70;99.90;;;;;;5093280;28;20731;-90
2023/03/05 04:27:21;;;;;;;6.45;0.98;;;2.70;99.90;;;;;;5093056;28;20412;-90
2023/03/05 04:29:47;;;;;;;5.93;1.02;;;2.70;99.90;;;;;;5094004;28;20387;-91
2023/03/05 04:32:12;;;;;;;7.30;1.40;;;2.70;99.90;;;;;;5092560;28;20470;-90
2023/03/05 04:34:38;;;;;;;7.70;1.10;;;2.70;99.90;;;;;;5110734;28;20401;-90
2023/03/05 04:37:04;;;;;;;9.77;0.90;;;2.70;99.90;;;;;;5092298;28;20478;-90
2023/03/05 04:39:29;;;;;;;7.72;1.10;;;2.80;99.90;;;;;;5110335;28;20402;-89
2023/03/05 04:41:55;;;;;;;6.03;0.80;;;2.70;99.90;;;;;;5109636;28;20433;-90
2023/03/05 04:44:22;;;;;;;8.20;0.80;;;2.80;99.90;;;;;;5093035;28;20489;-90
2023/03/05 04:46:48;;;;;;;8.32;0.80;;;3.00;99.90;;;;;;5093497;28;20747;-90
2023/03/05 04:49:14;;;;;;;8.38;0.70;;;2.80;99.90;;;;;;5092248;28;20387;-90
2023/03/05 04:51:40;;;;;;;8.05;0.93;;;2.90;99.90;;;;;;5093453;28;20418;-90
2023/03/05 04:54:06;;;;;;;7.07;0.77;;;2.90;99.90;;;;;;5091867;28;20399;-89
2023/03/05 04:56:32;;;;;;;7.77;0.60;;;2.90;99.90;;;;;;5093241;28;20399;-90
2023/03/05 04:58:58;;;;;;;10.90;0.55;;;3.10;99.90;;;;;;5092457;28;20402;-89
2023/03/05 05:01:23;;;;;;;7.27;0.40;;;2.80;99.90;;;;;;5092982;28;20410;-89
2023/03/05 05:03:49;;;;;;;7.50;0.60;;;2.90;99.90;;;;;;5092538;28;20403;-90
2023/03/05 05:06:15;;;;;;;7.05;0.60;;;2.90;99.90;;;;;;5092337;28;20403;-89
2023/03/05 05:08:40;;;;;;;7.55;0.60;;;2.90;99.90;;;;;;5095104;27;20414;-90
2023/03/05 05:11:07;;;;;;;9.13;0.50;;;2.90;99.90;;;;;;5116255;27;21052;-90
2023/03/05 05:13:33;;;;;;;9.33;0.70;;;2.90;99.90;;;;;;5134671;27;20385;-90
2023/03/05 05:15:59;;;;;;;6.68;0.60;;;3.00;99.90;;;;;;5116496;27;20381;-90
2023/03/05 05:18:25;;;;;;;6.78;0.52;;;3.00;99.90;;;;;;5134059;27;20884;-89
2023/03/05 05:20:51;;;;;;;9.75;0.80;;;2.90;99.90;;;;;;5115346;27;20405;-90
2023/03/05 05:23:16;;;;;;;6.85;0.75;;;2.80;99.90;;;;;;5096290;27;20422;-90
2023/03/05 05:25:42;;;;;;;8.73;0.90;;;2.70;99.90;;;;;;5096653;27;20936;-90
2023/03/05 05:28:08;;;;;;;9.20;0.77;;;2.70;99.90;;;;;;5112725;27;21205;-90
2023/03/05 05:30:34;;;;;;;8.15;0.95;;;2.70;99.90;;;;;;5096299;27;20807;-90
2023/03/05 05:33:00;;;;;;;7.88;0.60;;;2.70;99.90;;;;;;5094543;27;20474;-89
2023/03/05 05:35:26;;;;;;;7.95;1.00;;;2.60;99.90;;;;;;5096223;27;20395;-89
2023/03/05 05:37:51;;;;;;;9.57;0.80;;;2.70;99.90;;;;;;5094949;27;20482;-89
2023/03/05 05:40:17;;;;;;;9.27;0.87;;;2.60;99.90;;;;;;5095630;27;20406;-90
2023/03/05 05:42:43;;;;;;;11.90;1.13;;;2.50;99.90;;;;;;5095658;27;20512;-90
2023/03/05 05:45:10;;;;;;;9.40;1.25;;;2.40;99.90;;;;;;5095308;27;20467;-90
2023/03/05 05:47:36;;;;;;;10.60;1.10;;;2.40;99.90;;;;;;5113089;27;20408;-89
2023/03/05 05:50:02;;;;;;;9.53;1.00;;;2.40;99.90;;;;;;5094964;27;20395;-90
2023/03/05 05:52:28;;;;;;;8.73;0.75;;;2.30;99.90;;;;;;5113070;27;20395;-91
2023/03/05 05:54:53;;;;;;;8.93;0.88;;;2.30;99.90;;;;;;5094853;27;20410;-90
2023/03/05 05:57:19;;;;;;;11.53;1.10;;;2.30;99.90;;;;;;5096244;27;20407;-90
2023/03/05 05:59:44;;;;;;;10.47;1.10;;;2.20;99.90;;;;;;5094810;27;20409;-90
2023/03/05 06:02:10;;;;;;;11.07;1.48;;;2.30;99.90;;;;;;5111992;27;20422;-90
2023/03/05 06:04:36;;;;;;;11.57;1.20;;;2.20;99.90;;;;;;5095462;27;20410;-88
2023/03/05 06:07:02;;;;;;;10.70;1.00;;;2.20;99.90;;;;;;5094360;27;20893;-90
2023/03/05 06:09:28;;;;;;;11.07;1.27;;;2.30;99.90;;;;;;5095937;27;20566;-90
2023/03/05 06:11:54;;;;;;;11.95;1.38;;;2.20;99.90;;;;;;5094895;27;20914;-89
2023/03/05 06:14:19;;;;;;;11.73;1.40;;;2.30;99.90;;;;;;5113207;27;20936;-90
2023/03/05 06:16:45;;;;;;;11.45;1.42;;;2.20;99.90;;;;;;5112127;27;20469;-89
2023/03/05 06:19:12;;;;;;;10.82;1.15;;;2.20;99.90;;;;;;5094673;27;20803;-90
2023/03/05 06:21:38;;;;;;;10.85;1.17;;;2.20;99.90;;;;;;5095137;27;20538;-89
2023/03/05 06:24:04;;;;;;;9.32;1.40;;;2.30;99.90;;;;;;5111689;27;20395;-88
2023/03/05 06:26:29;;;;;;;13.13;1.40;;;2.10;99.90;;;;;;5095300;27;20406;-89
2023/03/05 06:28:56;;;;;;;7.60;1.10;;;2.10;99.90;;;;;;5093907;27;20437;-89
2023/03/05 06:31:24;;;;;;;9.20;1.38;;;2.10;99.90;;;;;;5094684;27;20433;-89
2023/03/05 06:33:51;;;;;;;9.93;1.20;;;2.10;99.90;;;;;;5110421;27;20492;-90
2023/03/05 06:36:19;;;;;;;10.27;1.13;;;2.10;99.90;;;;;;5094657;27;20776;-90
2023/03/05 06:38:45;;;;;;;13.20;1.20;;;2.00;99.90;;;;;;5106580;27;20396;-90
2023/03/05 06:41:14;;;;;;;14.38;1.63;;;2.00;99.90;;;;;;5114862;27;20385;-90
2023/03/05 06:43:42;;;;;;;12.63;1.35;;;2.00;99.90;;;;;;5114966;27;20451;-89
2023/03/05 06:46:12;;;;;;;8.10;1.05;;;2.10;99.90;;;;;;5131297;27;20401;-88
2023/03/05 06:48:38;;;;;;;12.73;1.13;;;2.00;99.90;;;;;;5115579;27;20408;-89
2023/03/05 06:51:04;;;;;;;10.55;1.30;;;2.00;99.90;;;;;;5120904;27;20440;-89
2023/03/05 06:53:30;;;;;;;8.25;0.90;;;2.00;99.90;;;;;;5103372;27;20477;-89
2023/03/05 06:55:59;;;;;;;8.48;1.13;;;2.00;99.90;;;;;;5100463;27;20485;-89
2023/03/05 06:58:25;;;;;;;12.13;1.30;;;2.00;99.90;;;;;;5105422;27;20441;-91
2023/03/05 07:00:50;;;;;;;13.57;1.17;;;2.00;99.90;;;;;;5105728;27;20400;-89
2023/03/05 07:03:16;;;;;;;8.00;0.93;;;2.00;99.90;;;;;;5114132;27;20467;-89
2023/03/05 07:05:42;;;;;;;8.30;1.00;;;2.10;99.90;;;;;;5114889;27;20385;-90
2023/03/05 07:08:08;;;;;;;7.97;0.80;;;2.10;99.90;;;;;;5113685;27;20914;-89
2023/03/05 07:10:41;;;;;;;8.48;0.70;;;2.20;99.90;;;;;;5132462;27;20401;-90
2023/03/05 07:13:08;;;;;;;8.48;0.77;;;2.10;99.90;;;;;;5113817;27;20405;-88
2023/03/05 07:15:37;;;;;;;6.75;0.70;;;2.20;99.90;;;;;;5132057;27;20899;-90
2023/03/05 07:18:03;;;;;;;9.43;0.70;;;2.30;99.90;;;;;;5131245;27;20389;-89
2023/03/05 07:20:28;;;;;;;8.77;1.00;;;2.30;99.90;;;;;;5101502;27;20459;-91
2023/03/05 07:22:54;;;;;;;9.50;0.90;;;2.40;99.90;;;;;;5102054;27;20428;-88
2023/03/05 07:25:20;;;;;;;6.53;0.80;;;2.40;99.90;;;;;;5096196;27;20479;-90
2023/03/05 07:27:46;;;;;;;8.32;0.63;;;2.50;99.90;;;;;;5094342;27;20483;-90
2023/03/05 07:30:13;;;;;;;12.03;0.67;;;2.50;99.90;;;;;;5100543;27;20438;-90
2023/03/05 07:32:39;;;;;;;10.00;0.50;;;2.60;99.90;;;;;;5130375;27;20449;-89
2023/03/05 07:35:05;;;;;;;9.55;0.68;;;2.60;99.90;;;;;;5131240;27;20908;-90
2023/03/05 07:37:30;;;;;;;7.45;0.75;;;2.60;99.90;;;;;;5114082;27;20755;-89
2023/03/05 07:39:56;;;;;;;7.50;0.50;;;2.70;99.90;;;;;;5095892;27;20399;-91
2023/03/05 07:42:21;;;;;;;13.10;0.70;;;2.70;99.90;;;;;;5092133;27;20453;-90
2023/03/05 07:44:47;;;;;;;8.30;0.50;;;2.90;99.90;;;;;;5111164;27;20399;-89
2023/03/05 07:47:14;;;;;;;7.30;0.60;;;2.80;99.90;;;;;;5092888;28;20810;-89
2023/03/05 07:49:40;;;;;;;7.90;0.60;;;2.90;99.90;;;;;;5112934;27;20420;-90
2023/03/05 07:52:07;;;;;;;9.30;0.70;;;2.90;99.90;;;;;;5130033;27;20776;-89
2023/03/05 07:54:36;;;;;;;6.22;0.43;;;2.90;99.90;;;;;;5113809;27;20389;-89
2023/03/05 07:57:03;;;;;;;6.82;0.63;;;3.00;99.90;;;;;;5113880;27;20779;-90
2023/03/05 07:59:29;;;;;;;6.82;0.68;;;3.00;99.90;;;;;;5112606;27;20400;-90
2023/03/05 08:01:55;;;;;;;8.32;0.73;;;3.40;99.90;;;;;;5113793;27;20487;-89
2023/03/05 08:04:21;;;;;;;6.43;0.57;;;3.20;99.90;;;;;;5112450;27;20493;-90
2023/03/05 08:06:48;;;;;;;6.18;0.60;;;3.50;99.90;;;;;;5113959;27;20523;-90
2023/03/05 08:09:15;;;;;;;10.55;1.20;;;3.40;99.90;;;;;;5112942;27;20389;-90
2023/03/05 08:11:40;;;;;;;8.05;0.80;;;3.70;99.90;;;;;;5113851;27;20399;-89
2023/03/05 08:14:06;;;;;;;9.48;0.90;;;3.50;99.90;;;;;;5113062;27;20404;-89
2023/03/05 08:16:32;;;;;;;7.40;0.65;;;3.60;99.90;;;;;;5113318;27;20397;-90
2023/03/05 08:18:58;;;;;;;9.63;0.77;;;3.70;99.90;;;;;;5130723;27;20389;-90
2023/03/05 08:21:29;;;;;;;8.98;0.85;;;3.80;99.90;;;;;;5113052;27;20903;-89
2023/03/05 08:23:59;;;;;;;9.13;0.82;;;3.90;99.90;;;;;;5114013;27;20813;-90
2023/03/05 08:26:26;;;;;;;7.18;0.60;;;4.00;99.90;;;;;;5112615;27;20393;-89
2023/03/05 08:28:52;;;;;;;8.30;0.85;;;4.10;99.90;;;;;;5113439;27;20397;-89
2023/03/05 08:31:20;;;;;;;8.38;0.73;;;4.30;99.90;;;;;;5113274;27;20788;-90
2023/03/05 08:33:47;;;;;;;8.75;0.85;;;4.40;99.90;;;;;;5113597;27;20404;-88
2023/03/05 08:36:13;;;;;;;6.68;0.70;;;4.40;99.90;;;;;;5113576;27;20398;-90
2023/03/05 08:38:38;;;;;;;8.35;1.13;;;4.60;99.90;;;;;;5113144;27;20724;-90
2023/03/05 08:41:05;;;;;;;8.57;0.60;;;4.80;99.90;;;;;;5109843;28;20395;-90
2023/03/05 08:43:30;;;;;;;7.72;1.10;;;5.00;99.90;;;;;;5091921;27;20418;-90
2023/03/05 08:45:58;;;;;;;6.38;0.60;;;5.00;99.70;;;;;;5113565;27;20402;-90
2023/03/05 08:48:23;;;;;;;9.07;1.83;;;5.20;99.60;;;;;;5096375;27;20391;-90
2023/03/05 08:50:49;;;;;;;6.43;0.60;;;5.30;99.60;;;;;;5113648;27;20397;-90
2023/03/05 08:53:14;;;;;;;9.10;0.93;;;5.30;99.40;;;;;;5096105;27;20901;-90
2023/03/05 08:55:40;;;;;;;6.67;0.53;;;5.40;99.20;;;;;;5096639;27;20397;-89
2023/03/05 08:58:06;;;;;;;8.60;0.90;;;5.50;98.40;;;;;;5113790;27;20541;-90
2023/03/05 09:00:31;;;;;;;6.57;0.65;;;5.60;97.90;;;;;;5096164;27;20753;-91
2023/03/05 09:02:57;;;;;;;9.70;0.80;;;5.70;97.90;;;;;;5114078;27;20447;-90
2023/03/05 09:05:23;;;;;;;6.03;0.40;;;5.80;97.30;;;;;;5113168;27;20406;-90
2023/03/05 09:07:48;;;;;;;6.13;0.83;;;5.90;98.20;;;;;;5096744;27;20469;-90
2023/03/05 09:10:14;;;;;;;6.22;0.45;;;6.00;98.30;;;;;;5096195;27;20428;-91
2023/03/05 09:12:40;;;;;;;5.72;0.60;;;6.00;96.10;;;;;;5096441;27;20395;-89
2023/03/05 09:15:08;;;;;;;5.75;0.40;;;6.00;95.50;;;;;;5096579;27;20453;-90
2023/03/05 09:17:35;;;;;;;5.50;0.40;;;6.00;96.20;;;;;;5095827;27;20410;-91
2023/03/05 09:20:02;;;;;;;4.05;0.50;;;6.20;95.80;;;;;;5096794;27;20842;-89
2023/03/05 09:22:28;;;;;;;5.05;0.40;;;6.40;95.70;;;;;;5112260;27;20461;-91
2023/03/05 09:24:54;;;;;;;5.13;0.40;;;6.50;95.30;;;;;;5114098;27;20406;-90
2023/03/05 09:27:20;;;;;;;6.53;0.47;;;6.40;94.80;;;;;;5095599;27;21046;-89
2023/03/05 09:29:46;;;;;;;4.70;0.40;;;6.10;96.30;;;;;;5095976;27;20539;-90
2023/03/05 09:32:11;;;;;;;3.03;0.20;;;5.90;96.50;;;;;;5096063;27;20434;-90
2023/03/05 09:34:37;;;;;;;5.15;0.40;;;6.00;95.90;;;;;;5112545;27;20987;-90
2023/03/05 09:37:03;;;;;;;4.70;0.20;;;5.70;96.20;;;;;;5096036;27;20425;-90
2023/03/05 09:39:29;;;;;;;3.63;0.30;;;5.80;95.60;;;;;;5094875;27;20519;-90
2023/03/05 09:42:00;;;;;;;4.70;0.47;;;6.00;95.80;;;;;;5095768;27;20423;-91
2023/03/05 09:44:50;;;;;;;8.13;0.30;;;6.00;95.30;;;;;;5094964;27;20460;-89
2023/03/05 09:47:24;;;;;;;4.93;0.30;;;6.30;95.70;;;;;;5112486;27;20742;-89
2023/03/05 09:49:59;;;;;;;4.40;0.20;;;6.20;95.50;;;;;;5095779;27;20414;-89
2023/03/05 09:52:37;;;;;;;5.97;0.30;;;6.20;95.70;;;;;;5094195;27;20502;-90
2023/03/05 09:55:10;;;;;;;5.50;0.20;;;5.90;95.30;;;;;;5095991;27;20411;-90
2023/03/05 09:57:44;;;;;;;7.82;0.50;;;5.70;95.80;;;;;;5094319;27;20932;-88
2023/03/05 10:00:45;;;;;;;4.88;0.30;;;5.70;98.30;;;;;;5095603;27;20883;-90
2023/03/05 10:03:33;;;;;;;4.75;0.43;;;6.00;97.70;;;;;;5071891;27;20415;-90
2023/03/05 10:06:28;;;;;;;4.60;0.43;;;6.20;96.60;;;;;;5094866;27;20407;-89
2023/03/05 10:09:09;;;;;;;6.75;0.57;;;6.40;97.80;;;;;;5093774;27;20494;-91
2023/03/05 10:11:52;;;;;;;5.80;0.60;;;6.60;96.50;;;;;;5095513;27;20463;-91
2023/03/05 10:14:24;;;;;;;5.78;0.43;;;6.80;94.00;;;;;;5094652;27;20775;-89
2023/03/05 10:16:59;;;;;;;4.70;0.50;;;6.50;93.10;;;;;;5095546;27;20479;-90
2023/03/05 10:19:50;;;;;;;3.92;0.30;;;6.50;92.40;;;;;;5094126;27;20399;-90
2023/03/05 10:22:28;;;;;;;7.30;0.63;;;6.60;93.60;;;;;;5094393;27;20434;-90
2023/03/05 10:25:06;;;;;;;7.93;0.80;;;6.90;94.70;;;;;;5094935;27;20459;-90
2023/03/05 10:27:51;;;;;;;5.95;0.45;;;7.40;95.20;;;;;;5111057;27;20413;-91
2023/03/05 10:30:53;;;;;;;6.45;0.47;;;8.10;94.00;;;;;;5111904;27;20407;-90
2023/03/05 10:33:28;;;;;;;4.88;0.30;;;8.40;91.30;;;;;;5094907;27;20475;-91
2023/03/05 10:35:59;;;;;;;2.75;0.20;;;8.20;86.40;;;;;;5094442;27;20482;-90
2023/03/05 10:38:43;;;;;;;3.47;0.20;;;7.80;83.30;;;;;;5104536;27;20389;-89
2023/03/05 10:41:31;;;;;;;4.28;0.30;;;7.60;85.40;;;;;;5086360;28;20413;-89
2023/03/05 10:44:08;;;;;;;3.45;0.30;;;7.70;90.70;;;;;;5070246;28;20913;-89
2023/03/05 10:46:45;;;;;;;5.50;0.30;;;8.10;91.10;;;;;;5070354;28;20544;-90
2023/03/05 10:49:35;;;;;;;4.47;0.32;;;8.30;89.50;;;;;;5069354;28;20402;-91
2023/03/05 10:52:16;;;;;;;4.82;0.30;;;8.10;85.40;;;;;;5070811;28;20493;-89
2023/03/05 10:54:42;;;;;;;3.40;0.20;;;7.80;85.80;;;;;;5070593;28;20410;-88
2023/03/05 10:57:22;;;;;;;5.75;0.40;;;7.70;87.50;;;;;;5070068;28;20406;-91
2023/03/05 10:59:51;;;;;;;4.05;0.30;;;7.90;90.50;;;;;;5085874;28;20855;-90
2023/03/05 11:02:18;;;;;;;4.50;0.30;;;8.10;90.30;;;;;;5069553;28;20509;-90
2023/03/05 11:04:46;;;;;;;4.72;0.50;;;8.50;88.90;;;;;;5070211;28;20482;-91
2023/03/05 11:07:14;;;;;;;3.35;0.30;;;8.90;87.60;;;;;;5083243;28;20461;-92
2023/03/05 11:09:41;;;;;;;3.63;0.30;;;8.90;83.80;;;;;;5090958;28;20415;-88
2023/03/05 11:12:16;;;;;;;2.72;0.20;;;8.50;81.50;;;;;;5090630;28;20759;-91
2023/03/05 11:15:22;;;;;;;3.63;0.30;;;8.20;80.10;;;;;;5107258;28;20430;-90
2023/03/05 11:18:04;;;;;;;2.85;0.20;;;8.40;83.40;;;;;;5090575;28;20755;-90
2023/03/05 11:20:35;;;;;;;2.85;0.20;;;8.60;83.00;;;;;;5091770;28;20434;-90
2023/03/05 11:23:09;;;;;;;3.30;0.20;;;8.90;81.20;;;;;;5089499;28;20426;-91
2023/03/05 11:25:51;;;;;;;3.17;0.30;;;9.20;83.10;;;;;;5086411;28;20402;-91
2023/03/05 11:28:20;;;;;;;2.97;0.20;;;9.70;78.60;;;;;;5070960;28;20856;-90
2023/03/05 11:31:06;;;;;;;2.88;0.20;;;10.20;76.30;;;;;;5094741;28;20405;-90
2023/03/05 11:33:33;;;;;;;3.33;0.30;;;9.80;74.10;;;;;;5075892;28;20417;-91
2023/03/05 11:36:35;;;;;;;3.42;0.30;;;9.50;75.70;;;;;;5083761;28;20396;-91
2023/03/05 11:39:14;;;;;;;2.75;0.20;;;9.00;76.00;;;;;;5067590;28;20410;-90
2023/03/05 11:41:49;;;;;;;3.03;0.30;;;8.70;73.10;;;;;;5091502;28;20484;-90
2023/03/05 11:44:19;;;;;;;3.25;0.20;;;8.40;78.80;;;;;;5073398;28;20495;-91
2023/03/05 11:46:49;;;;;;;3.63;0.20;;;8.30;76.50;;;;;;5086985;28;20738;-91
2023/03/05 11:49:19;;;;;;;2.50;0.20;;;8.60;82.30;;;;;;5096081;28;20874;-90
2023/03/05 11:52:02;;;;;;;2.65;0.20;;;9.00;81.60;;;;;;5086495;28;20398;-90
2023/03/05 11:54:38;;;;;;;2.90;0.20;;;9.30;79.30;;;;;;5089600;28;20474;-89
2023/03/05 11:57:05;;;;;;;3.20;0.30;;;9.20;78.70;;;;;;5098918;28;20402;-90
2023/03/05 11:59:38;;;;;;;2.70;0.20;;;9.10;76.40;;;;;;5077444;28;20465;-90
2023/03/05 12:02:16;;;;;;;3.10;0.28;;;9.10;78.10;;;;;;5088622;28;20809;-92
2023/03/05 12:04:42;;;;;;;3.95;0.20;;;9.00;78.10;;;;;;5089921;28;20392;-90
2023/03/05 12:07:14;;;;;;;4.13;0.30;;;8.90;77.60;;;;;;5082134;28;20410;-90
2023/03/05 12:09:51;;;;;;;4.43;0.23;;;8.70;77.10;;;;;;5080416;28;20406;-90
2023/03/05 12:12:36;;;;;;;3.30;0.30;;;8.40;79.60;;;;;;5077388;28;20418;-87
2023/03/05 12:15:11;;;;;;;4.00;0.23;;;8.50;81.00;;;;;;5085508;28;20418;-88
2023/03/05 12:17:47;;;;;;;3.58;0.20;;;8.50;81.60;;;;;;5081052;28;20412;-90
2023/03/05 12:20:19;;;;;;;3.63;0.20;;;8.40;79.50;;;;;;5091040;28;20808;-90
2023/03/05 12:22:45;;;;;;;3.75;0.30;;;8.40;77.60;;;;;;5090900;28;20997;-90
2023/03/05 12:25:45;;;;;;;2.75;0.20;;;8.60;80.00;;;;;;5073369;28;20445;-91
2023/03/05 12:28:28;;;;;;;3.95;0.30;;;8.90;76.60;;;;;;5089477;28;20451;-92
2023/03/05 12:30:57;;;;;;;3.25;0.20;;;9.30;77.30;;;;;;5075731;28;20410;-91
2023/03/05 12:33:30;;;;;;;3.25;0.20;;;9.20;77.70;;;;;;5088631;28;20405;-92
2023/03/05 12:36:21;;;;;;;2.50;0.28;;;9.00;77.20;;;;;;5101571;28;20437;-92
2023/03/05 12:38:51;;;;;;;2.78;0.30;;;8.70;78.60;;;;;;5073631;28;20414;-91
2023/03/05 12:41:23;;;;;;;4.35;0.20;;;8.70;79.40;;;;;;5080046;28;20823;-91
2023/03/05 12:44:04;;;;;;;2.78;0.30;;;8.70;77.60;;;;;;5093121;28;20405;-91
2023/03/05 12:46:31;;;;;;;3.40;0.20;;;9.00;77.40;;;;;;5073617;28;20497;-93
2023/03/05 12:48:58;;;;;;;4.13;0.22;;;9.00;79.80;;;;;;5077463;28;20409;-90
2023/03/05 12:51:33;;;;;;;5.18;0.32;;;8.90;77.70;;;;;;5083854;28;20409;-90
2023/03/05 12:54:30;;;;;;;3.43;0.20;;;8.50;75.90;;;;;;5085618;28;20411;-91
2023/03/05 12:57:03;;;;;;;3.05;0.30;;;8.10;79.90;;;;;;5094152;28;20401;-90
2023/03/05 12:59:47;;;;;;;4.55;0.35;;;8.30;80.90;;;;;;5100747;28;20398;-90
2023/03/05 13:02:38;;;;;;;6.90;0.40;;;8.10;80.40;;;;;;5087087;28;20424;-90
2023/03/05 13:05:22;;;;;;;3.28;0.30;;;8.00;79.30;;;;;;5096363;28;20418;-90
2023/03/05 13:07:49;;;;;;;3.47;0.40;;;7.80;80.60;;;;;;5088919;28;20406;-91